createdAt,value
2019-02-11T00:02:01.583Z,5.06
2019-02-11T00:04:38.855Z,5.05
2019-02-11T00:07:12.055Z,5.08
2019-02-11T00:09:45.086Z,5.13
2019-02-11T00:12:19.235Z,5.13
2019-02-11T00:14:52.153Z,5.18
2019-02-11T00:17:25.029Z,5.20
2019-02-11T00:20:02.512Z,5.26
2019-02-11T00:22:35.423Z,5.31
2019-02-11T00:25:09.579Z,5.25
2019-02-11T00:27:41.572Z,5.36
2019-02-11T00:30:15.495Z,5.39
2019-02-11T00:32:48.350Z,5.36
2019-02-11T00:35:21.616Z,5.44
2019-02-11T00:37:55.763Z,5.51
2019-02-11T00:40:28.232Z,5.54
2019-02-11T00:43:00.672Z,5.55
2019-02-11T00:45:33.368Z,5.54
2019-02-11T00:48:07.220Z,5.56
2019-02-11T00:50:39.241Z,5.65
2019-02-11T00:53:12.594Z,5.63
2019-02-11T00:55:46.808Z,5.59
2019-02-11T00:58:18.278Z,5.60
2019-02-11T01:00:50.817Z,5.57
2019-02-11T01:03:23.821Z,5.62
2019-02-11T01:05:56.952Z,5.65
2019-02-11T01:08:30.101Z,5.60
2019-02-11T01:11:06.045Z,5.58
2019-02-11T01:13:38.569Z,5.58
2019-02-11T01:16:11.718Z,5.54
2019-02-11T01:18:45.924Z,5.54
2019-02-11T01:21:18.818Z,5.55
2019-02-11T01:23:51.443Z,5.54
2019-02-11T01:26:28.346Z,5.55
2019-02-11T01:29:02.277Z,5.48
2019-02-11T01:31:35.877Z,5.49
2019-02-11T01:34:08.557Z,5.56
2019-02-11T01:36:41.178Z,5.54
2019-02-11T01:39:15.257Z,5.62
2019-02-11T01:41:48.771Z,5.67
2019-02-11T01:44:22.051Z,5.69
2019-02-11T01:46:53.699Z,5.63
2019-02-11T01:49:29.015Z,5.67
2019-02-11T01:52:01.979Z,5.69
2019-02-11T01:54:34.161Z,5.68
2019-02-11T01:57:06.836Z,5.70
2019-02-11T01:59:39.152Z,5.83
2019-02-11T02:02:11.994Z,5.81
2019-02-11T02:04:44.614Z,5.79
2019-02-11T02:07:17.369Z,5.83
2019-02-11T02:09:49.853Z,5.97
2019-02-11T02:12:21.955Z,5.92
2019-02-11T02:14:53.897Z,5.90
2019-02-11T02:17:25.998Z,5.93
2019-02-11T02:19:58.579Z,5.92
2019-02-11T02:22:30.066Z,5.99
2019-02-11T02:25:02.210Z,5.97
2019-02-11T02:27:34.781Z,6.03
2019-02-11T02:30:07.322Z,6.01
2019-02-11T02:32:40.093Z,6.12
2019-02-11T02:35:13.183Z,6.11
2019-02-11T02:37:45.835Z,6.14
2019-02-11T02:40:18.339Z,6.19
2019-02-11T02:42:51.430Z,6.17
2019-02-11T02:45:22.700Z,6.14
2019-02-11T02:47:55.492Z,6.14
2019-02-11T02:50:28.597Z,6.19
2019-02-11T02:53:01.187Z,6.25
2019-02-11T02:55:33.773Z,6.37
2019-02-11T02:58:05.793Z,6.35
2019-02-11T03:00:37.230Z,6.31
2019-02-11T03:03:09.817Z,6.32
2019-02-11T03:05:41.151Z,6.34
2019-02-11T03:08:13.168Z,6.35
2019-02-11T03:10:44.751Z,6.36
2019-02-11T03:13:16.266Z,6.36
2019-02-11T03:15:49.555Z,6.38
2019-02-11T03:18:21.650Z,6.34
2019-02-11T03:20:53.948Z,6.32
2019-02-11T03:23:26.241Z,6.34
2019-02-11T03:25:58.524Z,6.36
2019-02-11T03:28:31.530Z,6.33
2019-02-11T03:31:05.317Z,6.32
2019-02-11T03:33:38.363Z,6.37
2019-02-11T03:36:10.361Z,6.34
2019-02-11T03:38:43.476Z,6.40
2019-02-11T03:41:15.605Z,6.36
2019-02-11T03:43:48.342Z,6.37
2019-02-11T03:46:19.578Z,6.43
2019-02-11T03:48:51.562Z,6.36
2019-02-11T03:51:22.995Z,6.34
2019-02-11T03:53:54.530Z,6.36
2019-02-11T03:56:28.045Z,6.34
2019-02-11T03:58:59.184Z,6.33
2019-02-11T04:01:30.517Z,6.35
2019-02-11T04:04:01.683Z,6.29
2019-02-11T04:06:40.157Z,6.37
2019-02-11T04:09:12.513Z,6.30
2019-02-11T04:11:45.613Z,6.28
2019-02-11T04:14:24.775Z,6.31
2019-02-11T04:16:52.853Z,6.32
2019-02-11T04:19:25.079Z,6.31
2019-02-11T04:22:15.435Z,6.33
2019-02-11T04:24:47.751Z,6.28
2019-02-11T04:27:20.259Z,6.28
2019-02-11T04:29:52.575Z,6.28
2019-02-11T04:32:27.119Z,6.29
2019-02-11T04:34:59.456Z,6.32
2019-02-11T04:37:31.698Z,6.32
2019-02-11T04:40:04.513Z,6.27
2019-02-11T04:42:37.041Z,6.29
2019-02-11T04:45:10.684Z,6.28
2019-02-11T04:47:42.603Z,6.24
2019-02-11T04:50:14.953Z,6.22
2019-02-11T04:52:48.044Z,6.17
2019-02-11T04:55:21.551Z,6.20
2019-02-11T04:57:53.625Z,6.18
2019-02-11T05:00:25.741Z,6.17
2019-02-11T05:02:58.635Z,6.15
2019-02-11T05:05:31.189Z,6.13
2019-02-11T05:08:03.818Z,6.10
2019-02-11T05:10:36.575Z,6.14
2019-02-11T05:13:09.353Z,6.15
2019-02-11T05:15:41.735Z,6.12
2019-02-11T05:18:14.097Z,6.20
2019-02-11T05:20:47.052Z,6.15
2019-02-11T05:23:19.463Z,6.29
2019-02-11T05:25:52.510Z,6.21
2019-02-11T05:28:25.535Z,6.16
2019-02-11T05:30:58.138Z,6.18
2019-02-11T05:33:30.640Z,6.20
2019-02-11T05:36:02.731Z,6.27
2019-02-11T05:38:36.013Z,6.23
2019-02-11T05:41:08.432Z,6.25
2019-02-11T05:43:40.766Z,6.23
2019-02-11T05:46:13.353Z,6.20
2019-02-11T05:48:45.223Z,6.19
2019-02-11T05:51:17.618Z,6.20
2019-02-11T05:53:49.920Z,6.25
2019-02-11T05:56:21.769Z,6.23
2019-02-11T05:58:54.060Z,6.18
2019-02-11T06:01:26.071Z,6.26
2019-02-11T06:04:03.116Z,6.29
2019-02-11T06:06:38.609Z,6.21
2019-02-11T06:09:11.307Z,6.28
2019-02-11T06:11:44.399Z,6.24
2019-02-11T06:14:16.781Z,6.19
2019-02-11T06:16:52.748Z,6.23
2019-02-11T06:19:28.196Z,6.32
2019-02-11T06:22:00.954Z,6.19
2019-02-11T06:24:34.101Z,6.29
2019-02-11T06:27:06.517Z,6.21
2019-02-11T06:29:39.459Z,6.29
2019-02-11T06:32:12.040Z,6.23
2019-02-11T06:34:46.870Z,6.24
2019-02-11T06:37:18.899Z,6.32
2019-02-11T06:39:51.247Z,6.32
2019-02-11T06:42:23.456Z,6.34
2019-02-11T06:44:57.976Z,6.35
2019-02-11T06:47:30.457Z,6.27
2019-02-11T06:50:10.372Z,6.21
2019-02-11T06:52:42.692Z,6.31
2019-02-11T06:55:16.122Z,6.24
2019-02-11T06:57:48.616Z,6.25
2019-02-11T07:00:21.243Z,6.23
2019-02-11T07:02:57.798Z,6.23
2019-02-11T07:05:31.703Z,6.19
2019-02-11T07:08:05.706Z,6.12
2019-02-11T07:10:38.651Z,6.07
2019-02-11T07:13:11.305Z,6.00
2019-02-11T07:15:44.550Z,6.05
2019-02-11T07:18:19.840Z,5.89
2019-02-11T07:20:52.778Z,5.98
2019-02-11T07:23:25.358Z,6.00
2019-02-11T07:25:58.040Z,5.96
2019-02-11T07:28:30.402Z,5.94
2019-02-11T07:31:02.912Z,5.90
2019-02-11T07:33:37.351Z,5.98
2019-02-11T07:36:10.908Z,5.95
2019-02-11T07:40:44.109Z,5.95
2019-02-11T07:43:32.273Z,6.18
2019-02-11T07:46:14.128Z,6.24
2019-02-11T07:48:49.749Z,6.46
2019-02-11T07:51:25.326Z,6.47
2019-02-11T07:54:02.343Z,6.39
2019-02-11T07:56:38.848Z,6.57
2019-02-11T07:59:19.055Z,6.66
2019-02-11T08:01:59.334Z,6.71
2019-02-11T08:04:32.269Z,6.41
2019-02-11T08:07:12.393Z,6.49
2019-02-11T08:09:47.525Z,6.39
2019-02-11T08:12:25.936Z,6.29
2019-02-11T08:15:01.877Z,6.27
2019-02-11T08:18:02.408Z,6.18
2019-02-11T08:20:51.681Z,6.27
2019-02-11T08:23:39.397Z,6.28
2019-02-11T08:26:14.525Z,6.28
2019-02-11T08:29:47.416Z,6.28
2019-02-11T08:32:11.201Z,6.23
2019-02-11T08:34:47.094Z,6.34
2019-02-11T08:37:45.985Z,6.34
2019-02-11T08:40:19.242Z,6.48
2019-02-11T08:43:02.848Z,6.53
2019-02-11T08:45:37.773Z,6.28
2019-02-11T08:50:20.239Z,6.32
2019-02-11T08:52:56.995Z,6.34
2019-02-11T08:55:35.840Z,6.39
2019-02-11T08:58:09.483Z,6.23
2019-02-11T09:00:46.767Z,6.34
2019-02-11T09:03:20.639Z,6.52
2019-02-11T09:05:56.303Z,6.58
2019-02-11T09:08:31.334Z,6.40
2019-02-11T09:11:04.401Z,6.34
2019-02-11T09:13:38.175Z,6.43
2019-02-11T09:16:12.088Z,6.51
2019-02-11T09:18:47.468Z,6.58
2019-02-11T09:22:08.813Z,6.60
2019-02-11T09:24:44.303Z,6.62
2019-02-11T09:27:17.262Z,6.56
2019-02-11T09:29:49.807Z,6.78
2019-02-11T09:32:22.492Z,6.74
2019-02-11T09:34:55.308Z,6.66
2019-02-11T09:37:27.590Z,6.58
2019-02-11T09:40:03.072Z,6.53
2019-02-11T09:42:35.865Z,6.70
2019-02-11T09:45:13.577Z,6.60
2019-02-11T09:47:45.761Z,6.57
2019-02-11T09:50:28.442Z,6.71
2019-02-11T09:53:02.041Z,6.62
2019-02-11T09:55:57.671Z,6.67
2019-02-11T09:58:31.421Z,6.70
2019-02-11T10:01:05.831Z,6.78
2019-02-11T10:03:52.451Z,6.76
2019-02-11T10:06:25.576Z,6.79
2019-02-11T10:09:04.765Z,6.77
2019-02-11T10:11:41.144Z,6.74
2019-02-11T10:14:17.029Z,6.76
2019-02-11T10:16:51.181Z,6.66
2019-02-11T10:19:23.712Z,6.74
2019-02-11T10:22:07.032Z,6.79
2019-02-11T10:24:48.835Z,6.93
2019-02-11T10:27:23.651Z,6.94
2019-02-11T10:29:56.088Z,6.89
2019-02-11T10:32:30.251Z,6.74
2019-02-11T10:35:02.507Z,6.74
2019-02-11T10:37:35.494Z,6.84
2019-02-11T10:40:08.965Z,6.99
2019-02-11T10:42:42.172Z,7.08
2019-02-11T10:45:15.912Z,7.01
2019-02-11T10:47:50.255Z,6.91
2019-02-11T10:50:23.927Z,6.92
2019-02-11T10:52:57.590Z,7.02
2019-02-11T10:55:37.007Z,7.05
2019-02-11T10:58:09.664Z,7.02
2019-02-11T11:00:42.671Z,7.10
2019-02-11T11:03:15.748Z,7.22
2019-02-11T11:05:49.311Z,7.36
2019-02-11T11:08:24.347Z,7.44
2019-02-11T11:10:58.970Z,7.30
2019-02-11T11:13:31.837Z,7.28
2019-02-11T11:16:04.836Z,7.34
2019-02-11T11:18:37.616Z,7.38
2019-02-11T11:21:13.605Z,7.47
2019-02-11T11:23:48.497Z,7.44
2019-02-11T11:26:20.878Z,7.42
2019-02-11T11:28:56.868Z,7.39
2019-02-11T11:31:32.207Z,7.45
2019-02-11T11:34:04.809Z,7.53
2019-02-11T11:36:40.047Z,7.58
2019-02-11T11:39:33.107Z,7.61
2019-02-11T11:42:06.484Z,7.62
2019-02-11T11:44:40.341Z,7.52
2019-02-11T11:47:13.911Z,7.56
2019-02-11T11:49:47.466Z,7.74
2019-02-11T11:52:21.759Z,7.66
2019-02-11T11:54:55.412Z,7.63
2019-02-11T11:57:29.121Z,7.66
2019-02-11T12:00:02.166Z,7.66
2019-02-11T12:02:36.605Z,7.68
2019-02-11T12:05:09.345Z,7.75
2019-02-11T12:07:45.264Z,7.84
2019-02-11T12:10:19.303Z,7.87
2019-02-11T12:12:53.083Z,7.73
2019-02-11T12:15:31.326Z,7.71
2019-02-11T12:18:03.915Z,7.77
2019-02-11T12:20:36.263Z,7.75
2019-02-11T12:23:09.040Z,7.91
2019-02-11T12:25:41.671Z,7.93
2019-02-11T12:28:16.621Z,7.82
2019-02-11T12:30:53.300Z,7.86
2019-02-11T12:33:24.930Z,7.81
2019-02-11T12:35:59.798Z,7.70
2019-02-11T12:38:36.019Z,7.82
2019-02-11T12:41:14.014Z,8.00
2019-02-11T12:43:56.084Z,8.07
2019-02-11T12:46:30.694Z,7.98
2019-02-11T12:49:03.065Z,7.87
2019-02-11T12:51:36.149Z,7.93
2019-02-11T12:54:09.561Z,7.98
2019-02-11T12:56:42.577Z,7.93
2019-02-11T12:59:18.084Z,8.00
2019-02-11T13:01:52.886Z,8.04
2019-02-11T13:04:25.633Z,8.18
2019-02-11T13:06:59.613Z,8.07
2019-02-11T13:09:40.810Z,7.98
2019-02-11T13:12:16.934Z,8.05
2019-02-11T13:14:56.126Z,8.07
2019-02-11T13:17:33.705Z,8.03
2019-02-11T13:20:08.913Z,8.05
2019-02-11T13:22:37.995Z,7.96
2019-02-11T13:25:15.486Z,8.01
2019-02-11T13:27:47.923Z,7.98
2019-02-11T13:30:23.026Z,7.84
2019-02-11T13:33:03.660Z,7.97
2019-02-11T13:35:37.199Z,8.06
2019-02-11T13:38:11.626Z,7.82
2019-02-11T13:40:48.620Z,7.75
2019-02-11T13:43:23.254Z,7.90
2019-02-11T13:45:59.476Z,7.91
2019-02-11T13:48:34.620Z,7.94
2019-02-11T13:51:08.622Z,7.84
2019-02-11T13:54:02.141Z,7.85
2019-02-11T13:56:34.614Z,7.89
2019-02-11T13:59:08.080Z,7.86
2019-02-11T14:01:41.684Z,7.87
2019-02-11T14:04:20.239Z,7.84
2019-02-11T14:10:37.535Z,7.87
2019-02-11T14:13:19.953Z,7.84
2019-02-11T14:20:42.385Z,8.05
2019-02-11T14:23:21.370Z,7.95
2019-02-11T14:26:02.039Z,7.94
2019-02-11T14:28:39.873Z,7.84
2019-02-11T14:31:43.305Z,7.99
2019-02-11T14:34:36.373Z,7.87
2019-02-11T14:37:12.773Z,7.76
2019-02-11T14:39:51.629Z,7.75
2019-02-11T14:42:25.087Z,7.68
2019-02-11T14:44:59.563Z,7.54
2019-02-11T14:47:55.178Z,7.62
2019-02-11T14:50:33.298Z,7.59
2019-02-11T14:53:27.253Z,7.60
2019-02-11T14:56:10.513Z,7.55
2019-02-11T14:58:52.821Z,7.71
2019-02-11T15:04:54.155Z,7.54
2019-02-11T15:07:43.359Z,7.55
2019-02-11T15:10:25.861Z,7.39
2019-02-11T15:13:04.372Z,7.38
2019-02-11T15:16:04.700Z,7.39
2019-02-11T15:18:43.750Z,7.33
2019-02-11T15:21:43.489Z,7.32
2019-02-11T15:24:23.359Z,7.21
2019-02-11T15:30:38.970Z,7.17
2019-02-11T15:33:25.237Z,7.17
2019-02-11T15:39:41.834Z,7.11
2019-02-11T15:42:29.367Z,7.04
2019-02-11T15:45:47.096Z,6.90
2019-02-11T15:49:43.582Z,6.94
2019-02-11T15:52:32.604Z,6.75
2019-02-11T15:59:52.110Z,6.74
2019-02-11T16:02:45.119Z,6.61
2019-02-11T16:09:22.728Z,6.47
2019-02-11T16:12:28.888Z,6.26
2019-02-11T16:15:55.621Z,6.24
2019-02-11T16:22:48.395Z,6.17
2019-02-11T16:26:44.705Z,5.80
2019-02-11T16:29:43.747Z,5.84
2019-02-11T16:36:20.512Z,5.68
2019-02-11T16:39:00.659Z,5.63
2019-02-11T16:45:23.190Z,5.56
2019-02-11T16:48:49.833Z,5.59
2019-02-11T16:51:43.437Z,5.54
2019-02-11T16:55:25.657Z,5.57
2019-02-11T16:58:43.330Z,5.50
2019-02-11T17:04:10.203Z,5.65
2019-02-11T17:06:51.427Z,5.51
2019-02-11T17:09:31.936Z,5.58
2019-02-11T17:12:11.433Z,5.42
2019-02-11T17:14:48.823Z,5.32
2019-02-11T17:17:38.986Z,5.33
2019-02-11T17:23:47.117Z,5.48
2019-02-11T17:26:21.436Z,5.41
2019-02-11T17:29:38.316Z,5.42
2019-02-11T17:33:19.742Z,5.41
2019-02-11T17:36:09.273Z,5.51
2019-02-11T17:39:09.261Z,5.44
2019-02-11T17:42:09.497Z,5.43
2019-02-11T17:44:53.564Z,5.37
2019-02-11T17:47:32.354Z,5.26
2019-02-11T17:50:08.521Z,5.19
2019-02-11T17:52:53.836Z,5.23
2019-02-11T17:55:31.183Z,5.18
2019-02-11T17:58:05.263Z,5.21
2019-02-11T18:00:51.130Z,5.23
2019-02-11T18:03:26.624Z,5.19
2019-02-11T18:06:11.843Z,5.20
2019-02-11T18:08:46.995Z,5.25
2019-02-11T18:11:21.314Z,5.09
2019-02-11T18:13:59.653Z,5.12
2019-02-11T18:16:42.445Z,5.24
2019-02-11T18:19:16.079Z,5.16
2019-02-11T18:21:55.202Z,5.14
2019-02-11T18:28:03.633Z,5.02
2019-02-11T18:30:38.556Z,5.01
2019-02-11T18:33:32.214Z,5.05
2019-02-11T18:36:08.414Z,4.99
2019-02-11T18:38:50.908Z,5.07
2019-02-11T18:41:27.868Z,5.04
2019-02-11T18:44:04.114Z,4.95
2019-02-11T18:46:40.595Z,4.93
2019-02-11T18:49:16.932Z,4.88
2019-02-11T18:51:52.773Z,4.81
2019-02-11T18:54:41.842Z,4.87
2019-02-11T18:57:50.267Z,4.79
2019-02-11T19:00:56.078Z,4.80
2019-02-11T19:04:22.501Z,4.72
2019-02-11T19:07:20.254Z,4.80
2019-02-11T19:10:24.818Z,4.86
2019-02-11T19:13:19.250Z,4.76
2019-02-11T19:20:02.961Z,4.70
2019-02-11T19:35:06.885Z,4.64
2019-02-11T19:38:10.742Z,4.63
2019-02-11T19:41:39.986Z,4.72
2019-02-11T19:44:51.403Z,4.56
2019-02-11T19:47:41.626Z,4.54
2019-02-11T19:51:02.024Z,4.43
2019-02-11T19:53:43.937Z,4.46
2019-02-11T19:56:19.824Z,4.43
2019-02-11T19:59:18.992Z,4.50
2019-02-11T20:02:06.769Z,4.50
2019-02-11T20:04:54.274Z,4.38
2019-02-11T20:17:44.849Z,4.47
2019-02-11T20:20:27.768Z,4.32
2019-02-11T20:23:10.324Z,4.25
2019-02-11T20:25:44.402Z,4.29
2019-02-11T20:28:34.398Z,4.28
2019-02-11T20:31:10.404Z,4.37
2019-02-11T20:33:44.575Z,4.29
2019-02-11T20:36:24.233Z,4.24
2019-02-11T20:38:59.928Z,4.25
2019-02-11T20:41:34.056Z,4.28
2019-02-11T20:44:11.103Z,4.22
2019-02-11T20:46:49.633Z,4.22
2019-02-11T20:49:32.641Z,4.14
2019-02-11T20:55:42.505Z,4.10
2019-02-11T21:04:25.597Z,4.23
2019-02-11T21:07:08.984Z,4.11
2019-02-11T21:09:50.659Z,4.12
2019-02-11T21:12:58.101Z,4.07
2019-02-11T21:16:08.412Z,4.05
2019-02-11T21:19:01.695Z,4.13
2019-02-11T21:21:56.955Z,4.16
2019-02-11T21:24:32.283Z,4.09
2019-02-11T21:27:05.685Z,4.25
2019-02-11T21:29:42.305Z,4.11
2019-02-11T21:32:18.553Z,4.20
2019-02-11T21:34:53.847Z,4.23
2019-02-11T21:37:46.448Z,4.07
2019-02-11T21:40:21.543Z,4.14
2019-02-11T21:42:57.686Z,4.27
2019-02-11T21:45:40.718Z,4.16
2019-02-11T21:48:16.844Z,4.00
2019-02-11T21:50:50.899Z,4.09
2019-02-11T21:56:29.034Z,4.08
2019-02-11T21:59:25.837Z,4.11
2019-02-11T22:02:45.859Z,4.10
2019-02-11T22:05:31.041Z,4.10
2019-02-11T22:08:11.205Z,4.06
2019-02-11T22:10:50.220Z,4.16
2019-02-11T22:13:35.737Z,4.16
2019-02-11T22:22:14.925Z,4.14
2019-02-11T22:24:56.340Z,4.03
2019-02-11T22:27:32.218Z,4.10
2019-02-11T22:30:09.042Z,4.09
2019-02-11T22:32:49.967Z,4.27
2019-02-11T22:35:34.366Z,4.21
2019-02-11T22:38:14.118Z,4.13
2019-02-11T22:40:52.616Z,4.16
2019-02-11T22:43:28.604Z,4.02
2019-02-11T22:46:02.788Z,4.12
2019-02-11T22:48:36.926Z,4.14
2019-02-11T22:51:22.000Z,4.24
2019-02-11T22:53:57.384Z,4.12
2019-02-11T22:57:19.614Z,4.20
2019-02-11T22:59:54.869Z,4.15
2019-02-11T23:02:29.533Z,4.15
2019-02-11T23:05:11.902Z,4.23
2019-02-11T23:07:47.849Z,4.18
2019-02-11T23:10:33.075Z,4.16
2019-02-11T23:13:27.315Z,4.28
2019-02-11T23:16:03.173Z,4.37
2019-02-11T23:18:39.767Z,4.26
2019-02-11T23:21:12.766Z,4.26
2019-02-11T23:23:57.098Z,4.32
2019-02-11T23:26:38.661Z,4.28
2019-02-11T23:29:20.945Z,4.31
2019-02-11T23:32:11.026Z,4.45
2019-02-11T23:34:45.159Z,4.48
2019-02-11T23:37:21.173Z,4.35
2019-02-11T23:39:54.677Z,4.32
2019-02-11T23:42:30.578Z,4.29
2019-02-11T23:45:21.843Z,4.21
2019-02-11T23:48:45.200Z,4.30
2019-02-11T23:51:18.030Z,4.14
2019-02-11T23:54:00.779Z,4.14
2019-02-11T23:56:34.464Z,4.18
2019-02-11T23:59:31.166Z,4.26
